Time;durP1;ratioP1;P1;durP2;ratioP2;P2;SDS_P1;SDS_P2;PMS_P1;PMS_P2;Temp;Humidity;BMP_temperature;BMP_pressure;BME280_temperature;BME280_humidity;BME280_pressure;Samples;Min_cycle;Max_cycle;Signal;HPM_P1;HPM_P2
2023/11/22 00:02:11;;;;;;;2.03;1.23;;;14.30;99.90;;;;;;5032190;28;20634;-44
2023/11/22 00:04:37;;;;;;;1.55;1.20;;;14.30;99.90;;;;;;5032170;28;20025;-45
2023/11/22 00:07:02;;;;;;;1.40;1.20;;;14.30;99.90;;;;;;5032545;28;20018;-45
2023/11/22 00:09:28;;;;;;;2.25;1.27;;;14.30;99.90;;;;;;5034122;28;20022;-43
2023/11/22 00:11:53;;;;;;;1.63;1.00;;;14.30;99.90;;;;;;5032842;28;20049;-44
2023/11/22 00:14:19;;;;;;;1.70;1.08;;;14.30;99.90;;;;;;5032690;28;20396;-44
2023/11/22 00:16:46;;;;;;;2.60;1.17;;;14.30;99.90;;;;;;5032327;28;20029;-45
2023/11/22 00:19:11;;;;;;;1.33;1.15;;;14.30;99.90;;;;;;5032820;28;20033;-44
2023/11/22 00:21:37;;;;;;;1.65;1.08;;;14.30;99.90;;;;;;5033444;28;20029;-45
2023/11/22 00:24:04;;;;;;;1.77;1.23;;;14.30;99.90;;;;;;5033488;28;20052;-44
2023/11/22 00:26:30;;;;;;;1.60;1.10;;;14.30;99.90;;;;;;5032163;28;20404;-44
2023/11/22 00:28:56;;;;;;;1.10;0.80;;;14.30;99.90;;;;;;5031871;28;20052;-45
2023/11/22 00:31:21;;;;;;;2.08;1.20;;;14.30;99.90;;;;;;5033417;28;20037;-45
2023/11/22 00:33:47;;;;;;;2.58;1.40;;;14.30;99.90;;;;;;5033558;28;20026;-45
2023/11/22 00:36:12;;;;;;;1.92;1.30;;;14.30;99.90;;;;;;5032323;28;20471;-44
2023/11/22 00:38:39;;;;;;;1.45;0.93;;;14.30;99.90;;;;;;5031338;28;20511;-43
2023/11/22 00:41:05;;;;;;;1.38;1.00;;;14.30;99.90;;;;;;5030573;28;20471;-43
2023/11/22 00:43:31;;;;;;;1.48;0.90;;;14.30;99.90;;;;;;5030694;28;20021;-44
2023/11/22 00:45:57;;;;;;;1.48;0.95;;;14.20;99.90;;;;;;5031151;28;20017;-45
2023/11/22 00:48:22;;;;;;;1.77;1.08;;;14.30;99.90;;;;;;5031236;28;20022;-44
2023/11/22 00:50:48;;;;;;;2.60;1.10;;;14.30;99.90;;;;;;5030714;28;20052;-44
2023/11/22 00:53:14;;;;;;;1.15;1.00;;;14.20;99.90;;;;;;5031397;28;20025;-43
2023/11/22 00:55:42;;;;;;;1.40;0.90;;;14.20;99.90;;;;;;5031450;28;20096;-44
2023/11/22 00:58:07;;;;;;;2.30;1.10;;;14.20;99.90;;;;;;5031618;28;20113;-45
2023/11/22 01:00:33;;;;;;;1.33;1.02;;;14.20;99.90;;;;;;5030814;28;20100;-45
2023/11/22 01:02:59;;;;;;;1.00;0.70;;;14.20;99.90;;;;;;5031434;28;20025;-43
2023/11/22 01:05:24;;;;;;;1.27;0.90;;;14.20;99.90;;;;;;5030713;28;20022;-43
2023/11/22 01:07:50;;;;;;;1.40;0.80;;;14.20;99.90;;;;;;5030521;28;20044;-44
2023/11/22 01:10:16;;;;;;;1.33;0.70;;;14.20;99.90;;;;;;5030949;28;20550;-45
2023/11/22 01:12:42;;;;;;;1.00;0.77;;;14.20;99.90;;;;;;5032045;28;20486;-43
2023/11/22 01:15:09;;;;;;;1.38;0.88;;;14.20;99.90;;;;;;5030835;28;20104;-45
2023/11/22 01:17:34;;;;;;;2.80;1.00;;;14.20;99.90;;;;;;5030119;28;20080;-45
2023/11/22 01:20:01;;;;;;;1.10;0.80;;;14.20;99.90;;;;;;5030433;28;20025;-44
2023/11/22 01:22:27;;;;;;;0.82;0.80;;;14.20;99.90;;;;;;5030435;28;20030;-44
2023/11/22 01:24:53;;;;;;;1.55;0.90;;;14.20;99.90;;;;;;5030310;28;20018;-45
2023/11/22 01:27:18;;;;;;;1.40;0.90;;;14.20;99.90;;;;;;5029372;28;20517;-44
2023/11/22 01:29:44;;;;;;;1.17;0.93;;;14.20;99.90;;;;;;5030549;28;20037;-45
2023/11/22 01:32:10;;;;;;;1.08;0.90;;;14.20;99.90;;;;;;5030541;28;20044;-44
2023/11/22 01:34:35;;;;;;;1.50;0.90;;;14.20;99.90;;;;;;5030621;28;20068;-43
2023/11/22 01:37:01;;;;;;;1.40;1.05;;;14.20;99.90;;;;;;5030894;28;20029;-44
2023/11/22 01:39:27;;;;;;;1.63;1.05;;;14.20;99.90;;;;;;4993618;28;1067907;-44
2023/11/22 01:41:54;;;;;;;0.98;0.80;;;14.20;99.90;;;;;;5030819;28;20080;-45
2023/11/22 01:44:19;;;;;;;1.92;0.88;;;14.20;99.90;;;;;;5030833;28;20018;-44
2023/11/22 01:46:45;;;;;;;1.20;0.80;;;14.20;99.90;;;;;;5031831;28;20032;-44
2023/11/22 01:49:11;;;;;;;0.93;0.80;;;14.20;99.90;;;;;;5032013;28;20029;-45
2023/11/22 01:51:39;;;;;;;1.73;1.00;;;14.20;99.90;;;;;;5029937;28;20064;-45
2023/11/22 01:54:08;;;;;;;1.33;0.77;;;14.20;99.90;;;;;;5032042;28;20499;-45
2023/11/22 01:56:37;;;;;;;1.10;1.00;;;14.20;99.90;;;;;;5030755;28;20034;-44
2023/11/22 01:59:03;;;;;;;1.00;0.80;;;14.20;99.90;;;;;;5032514;28;20025;-41
2023/11/22 02:01:29;;;;;;;1.42;0.98;;;14.20;99.90;;;;;;5031983;28;20483;-43
2023/11/22 02:03:55;;;;;;;1.70;0.80;;;14.30;99.90;;;;;;5032246;28;20037;-45
2023/11/22 02:06:21;;;;;;;1.00;0.90;;;14.30;99.90;;;;;;5034266;28;20021;-44
2023/11/22 02:08:47;;;;;;;1.02;0.90;;;14.40;99.90;;;;;;5034309;28;20017;-44
2023/11/22 02:11:13;;;;;;;1.25;0.80;;;14.50;99.90;;;;;;5035956;28;20044;-44
2023/11/22 02:13:39;;;;;;;0.93;0.80;;;14.50;99.90;;;;;;5034063;28;20431;-45
2023/11/22 02:16:04;;;;;;;1.58;0.70;;;14.60;99.90;;;;;;5034731;28;20460;-44
2023/11/22 02:18:30;;;;;;;2.85;0.90;;;14.60;99.90;;;;;;5034877;28;20441;-43
2023/11/22 02:20:56;;;;;;;1.05;0.80;;;14.70;99.90;;;;;;5033898;28;20029;-44
2023/11/22 02:23:22;;;;;;;1.02;0.65;;;14.70;99.90;;;;;;5034093;28;20026;-44
2023/11/22 02:25:48;;;;;;;2.15;0.90;;;14.80;99.90;;;;;;5034182;28;20021;-43
2023/11/22 02:28:14;;;;;;;1.27;0.90;;;14.80;99.90;;;;;;5033726;28;20076;-44
2023/11/22 02:30:41;;;;;;;1.02;0.73;;;14.80;99.90;;;;;;5034777;28;20021;-44
2023/11/22 02:33:07;;;;;;;1.35;1.00;;;14.90;99.90;;;;;;5036056;28;20063;-44
2023/11/22 02:35:33;;;;;;;1.05;0.80;;;14.90;99.90;;;;;;5035308;28;20033;-42
2023/11/22 02:38:00;;;;;;;0.80;0.65;;;14.90;99.90;;;;;;5033669;28;20116;-44
2023/11/22 02:40:27;;;;;;;0.77;0.70;;;14.90;99.90;;;;;;5033572;28;20120;-45
2023/11/22 02:42:53;;;;;;;0.93;0.80;;;14.90;99.90;;;;;;5034606;28;20021;-43
2023/11/22 02:45:24;;;;;;;0.60;0.57;;;14.90;99.90;;;;;;5033939;28;20032;-45
2023/11/22 02:47:50;;;;;;;2.42;0.98;;;14.90;99.90;;;;;;5035079;28;20033;-44
2023/11/22 02:50:16;;;;;;;1.67;1.00;;;14.90;99.90;;;;;;5034652;28;20028;-44
2023/11/22 02:52:42;;;;;;;1.27;0.80;;;14.90;99.90;;;;;;5033560;28;20022;-44
2023/11/22 02:55:11;;;;;;;1.02;0.90;;;14.90;99.90;;;;;;5034078;28;20159;-45
2023/11/22 02:57:39;;;;;;;1.25;0.80;;;14.90;99.90;;;;;;5034612;28;20026;-44
2023/11/22 03:00:07;;;;;;;1.67;0.90;;;14.90;99.90;;;;;;5033289;28;20026;-44
2023/11/22 03:02:33;;;;;;;1.00;0.80;;;14.90;99.90;;;;;;5033544;28;20076;-45
2023/11/22 03:04:59;;;;;;;1.00;0.70;;;14.90;99.90;;;;;;5033657;28;20562;-45
2023/11/22 03:07:27;;;;;;;1.30;0.95;;;14.90;99.90;;;;;;5033192;28;20057;-44
2023/11/22 03:09:53;;;;;;;1.58;0.88;;;14.80;99.90;;;;;;5032927;28;20021;-44
2023/11/22 03:12:23;;;;;;;1.02;0.88;;;14.90;99.90;;;;;;5034114;28;20034;-45
2023/11/22 03:14:48;;;;;;;1.10;1.00;;;14.90;99.90;;;;;;5033893;28;20060;-45
2023/11/22 03:17:17;;;;;;;1.10;0.90;;;14.80;99.90;;;;;;5031992;28;20057;-45
2023/11/22 03:19:45;;;;;;;1.30;1.00;;;14.80;99.90;;;;;;5032908;28;20487;-45
2023/11/22 03:22:11;;;;;;;1.35;0.95;;;14.80;99.90;;;;;;5033310;28;20041;-45
2023/11/22 03:24:38;;;;;;;1.70;1.00;;;14.80;99.90;;;;;;5033680;28;20021;-44
2023/11/22 03:27:04;;;;;;;1.10;1.00;;;14.70;99.90;;;;;;5032884;28;20556;-44
2023/11/22 03:29:29;;;;;;;1.10;0.85;;;14.80;99.90;;;;;;5033646;28;20021;-42
2023/11/22 03:31:55;;;;;;;1.20;1.10;;;14.70;99.90;;;;;;5033038;28;20136;-44
2023/11/22 03:34:21;;;;;;;1.85;1.00;;;14.70;99.90;;;;;;5032668;28;20029;-44
2023/11/22 03:36:48;;;;;;;1.20;0.88;;;14.70;99.90;;;;;;5032412;28;20029;-45
2023/11/22 03:39:15;;;;;;;1.23;0.98;;;14.70;99.90;;;;;;5032583;28;20055;-43
2023/11/22 03:41:41;;;;;;;1.10;1.00;;;14.70;99.90;;;;;;5034085;28;20026;-43
2023/11/22 03:44:10;;;;;;;1.00;0.90;;;14.70;99.90;;;;;;5033086;28;20022;-45
2023/11/22 03:46:37;;;;;;;1.15;1.05;;;14.70;99.90;;;;;;5032511;28;20053;-45
2023/11/22 03:49:06;;;;;;;1.10;0.90;;;14.60;99.90;;;;;;5032313;28;20029;-44
2023/11/22 03:51:32;;;;;;;1.58;0.82;;;14.70;99.90;;;;;;5032246;28;20025;-45
2023/11/22 03:53:58;;;;;;;1.73;1.00;;;14.60;99.90;;;;;;5032388;28;20034;-44
2023/11/22 03:56:25;;;;;;;1.45;0.98;;;14.60;99.90;;;;;;5032933;28;20026;-45
2023/11/22 03:58:50;;;;;;;1.08;0.90;;;14.60;99.90;;;;;;5032733;28;20507;-44
2023/11/22 04:01:16;;;;;;;1.30;0.90;;;14.60;99.90;;;;;;5033573;28;20037;-45
2023/11/22 04:03:43;;;;;;;1.20;0.90;;;14.60;99.90;;;;;;5033362;28;20156;-45
2023/11/22 04:06:10;;;;;;;1.05;0.90;;;14.60;99.90;;;;;;5032492;28;20029;-45
2023/11/22 04:08:35;;;;;;;1.25;1.08;;;14.60;99.90;;;;;;5032364;28;20371;-44
2023/11/22 04:11:01;;;;;;;1.30;1.00;;;14.60;99.90;;;;;;5032291;28;20056;-44
2023/11/22 04:13:27;;;;;;;1.98;1.10;;;14.50;99.90;;;;;;5032018;28;20025;-44
2023/11/22 04:15:53;;;;;;;1.77;1.00;;;14.50;99.90;;;;;;5032856;28;20039;-44
2023/11/22 04:18:19;;;;;;;1.52;1.00;;;14.50;99.90;;;;;;5032973;28;20065;-44
2023/11/22 04:20:45;;;;;;;1.67;0.90;;;14.50;99.90;;;;;;5033041;28;20394;-44
2023/11/22 04:23:11;;;;;;;1.20;0.90;;;14.50;99.90;;;;;;5033093;28;20021;-44
2023/11/22 04:25:37;;;;;;;1.05;0.82;;;14.50;99.90;;;;;;5032725;28;20048;-45
2023/11/22 04:28:03;;;;;;;1.60;1.20;;;14.50;99.90;;;;;;5031561;28;20037;-45
2023/11/22 04:30:29;;;;;;;1.52;1.17;;;14.40;99.90;;;;;;5032593;28;20438;-43
2023/11/22 04:32:54;;;;;;;1.20;1.08;;;14.40;99.90;;;;;;5032004;28;20471;-44
2023/11/22 04:35:20;;;;;;;1.65;1.00;;;14.40;99.90;;;;;;5031499;28;20025;-45
2023/11/22 04:37:46;;;;;;;1.52;1.15;;;14.40;99.90;;;;;;5031327;28;20498;-45
2023/11/22 04:40:14;;;;;;;1.50;1.00;;;14.40;99.90;;;;;;5031495;28;20044;-44
2023/11/22 04:42:40;;;;;;;1.40;1.00;;;14.40;99.90;;;;;;5032063;28;20041;-44
2023/11/22 04:45:06;;;;;;;2.10;1.30;;;14.40;99.90;;;;;;5031666;28;20026;-45
2023/11/22 04:47:32;;;;;;;1.58;1.00;;;14.40;99.90;;;;;;5032809;28;20021;-45
2023/11/22 04:49:57;;;;;;;1.30;1.10;;;14.40;99.90;;;;;;5031368;28;20025;-44
2023/11/22 04:52:23;;;;;;;1.27;1.00;;;14.40;99.90;;;;;;5032250;28;20025;-44
2023/11/22 04:54:49;;;;;;;1.20;0.90;;;14.30;99.90;;;;;;5032208;28;20418;-44
2023/11/22 04:57:15;;;;;;;2.17;1.00;;;14.30;99.90;;;;;;5031825;28;20399;-44
2023/11/22 04:59:41;;;;;;;1.52;1.10;;;14.30;99.90;;;;;;5031241;28;20048;-45
2023/11/22 05:02:07;;;;;;;1.50;1.10;;;14.30;99.90;;;;;;5031078;28;20484;-44
2023/11/22 05:04:33;;;;;;;1.73;1.20;;;14.30;99.90;;;;;;5031905;28;20271;-44
2023/11/22 05:06:58;;;;;;;1.13;0.93;;;14.30;99.90;;;;;;5033319;28;20026;-44
2023/11/22 05:09:24;;;;;;;1.00;0.90;;;14.30;99.90;;;;;;5031073;28;20483;-44
2023/11/22 05:11:51;;;;;;;1.30;1.20;;;14.20;99.90;;;;;;5031190;28;20018;-44
2023/11/22 05:14:17;;;;;;;1.58;1.27;;;14.30;99.90;;;;;;5031137;28;20055;-44
2023/11/22 05:16:43;;;;;;;1.65;0.95;;;14.30;99.90;;;;;;5031651;28;20025;-44
2023/11/22 05:19:08;;;;;;;1.45;0.90;;;14.20;99.90;;;;;;5031892;28;20083;-44
2023/11/22 05:21:34;;;;;;;1.70;1.15;;;14.20;99.90;;;;;;5031019;28;20545;-45
2023/11/22 05:24:00;;;;;;;1.20;1.00;;;14.20;99.90;;;;;;5031301;28;20017;-44
2023/11/22 05:26:26;;;;;;;2.20;1.20;;;14.20;99.90;;;;;;5031357;28;20450;-44
2023/11/22 05:28:53;;;;;;;1.45;1.02;;;14.20;99.90;;;;;;5030971;28;20103;-44
2023/11/22 05:31:20;;;;;;;1.15;0.90;;;14.20;99.90;;;;;;5031674;28;20022;-44
2023/11/22 05:33:46;;;;;;;1.50;1.10;;;14.20;99.90;;;;;;5031832;28;20021;-45
2023/11/22 05:36:12;;;;;;;1.27;1.00;;;14.20;99.90;;;;;;5030906;28;20051;-44
2023/11/22 05:38:38;;;;;;;1.27;0.90;;;14.20;99.90;;;;;;5030841;28;20443;-44
2023/11/22 05:41:03;;;;;;;1.00;0.80;;;14.20;99.90;;;;;;5034855;28;20030;-44
2023/11/22 05:43:29;;;;;;;1.33;1.13;;;14.20;99.90;;;;;;5035308;28;20108;-45
2023/11/22 05:45:55;;;;;;;4.13;1.60;;;14.20;99.90;;;;;;5034781;28;20036;-45
2023/11/22 05:48:21;;;;;;;2.63;1.80;;;14.20;99.90;;;;;;5036099;28;20025;-45
2023/11/22 05:50:47;;;;;;;1.70;1.42;;;14.10;99.80;;;;;;5035760;28;20029;-45
2023/11/22 05:53:19;;;;;;;1.77;1.42;;;14.00;99.70;;;;;;5035903;28;20483;-45
2023/11/22 05:55:48;;;;;;;2.92;1.40;;;14.00;99.90;;;;;;5035420;28;20033;-45
2023/11/22 05:58:16;;;;;;;4.90;1.50;;;13.90;99.90;;;;;;5034890;28;20404;-45
2023/11/22 06:00:43;;;;;;;4.45;1.60;;;13.90;99.90;;;;;;5034998;28;20030;-43
2023/11/22 06:03:09;;;;;;;2.03;1.50;;;13.90;99.90;;;;;;5035116;28;20022;-45
2023/11/22 06:05:35;;;;;;;2.40;1.30;;;13.90;99.90;;;;;;5035638;28;20048;-44
2023/11/22 06:08:01;;;;;;;2.33;1.30;;;13.90;99.90;;;;;;5034705;28;20100;-44
2023/11/22 06:10:26;;;;;;;2.53;1.50;;;13.90;99.90;;;;;;5034796;28;20418;-45
2023/11/22 06:12:52;;;;;;;3.05;1.35;;;13.90;99.90;;;;;;5034100;28;20021;-45
2023/11/22 06:15:20;;;;;;;1.70;1.48;;;13.90;99.90;;;;;;5034112;28;20025;-44
2023/11/22 06:17:47;;;;;;;1.65;1.27;;;13.90;99.90;;;;;;5034362;28;20622;-45
2023/11/22 06:20:13;;;;;;;1.85;1.40;;;13.90;99.90;;;;;;5035021;28;20104;-45
2023/11/22 06:22:40;;;;;;;2.00;1.30;;;13.90;99.90;;;;;;5035202;28;20395;-44
2023/11/22 06:25:10;;;;;;;3.42;1.30;;;13.90;99.90;;;;;;5034275;28;20251;-43
2023/11/22 06:27:36;;;;;;;2.13;1.50;;;13.90;99.90;;;;;;5033698;28;21030;-45
2023/11/22 06:30:02;;;;;;;1.95;1.40;;;13.90;99.90;;;;;;5034176;28;20029;-45
2023/11/22 06:32:28;;;;;;;1.60;1.38;;;13.90;99.90;;;;;;5034363;28;20026;-41
2023/11/22 06:34:54;;;;;;;1.98;1.33;;;13.90;99.90;;;;;;5033843;28;20029;-45
2023/11/22 06:37:20;;;;;;;1.65;1.15;;;13.90;99.90;;;;;;5034213;28;20026;-43
2023/11/22 06:39:46;;;;;;;1.75;1.23;;;13.90;99.90;;;;;;5034565;28;20029;-44
2023/11/22 06:42:13;;;;;;;1.35;1.23;;;13.90;99.90;;;;;;5034026;28;20083;-45
2023/11/22 06:44:39;;;;;;;1.92;1.38;;;13.90;99.90;;;;;;5034311;28;20013;-45
2023/11/22 06:47:07;;;;;;;1.85;1.45;;;13.90;99.90;;;;;;5033989;28;20032;-45
2023/11/22 06:49:33;;;;;;;2.20;1.40;;;13.90;99.90;;;;;;5033652;28;20020;-45
2023/11/22 06:51:58;;;;;;;3.00;1.40;;;14.00;99.90;;;;;;5032577;28;20022;-44
2023/11/22 06:54:24;;;;;;;2.03;1.17;;;14.00;99.90;;;;;;5035061;28;20112;-44
2023/11/22 06:56:51;;;;;;;1.80;1.30;;;14.00;99.90;;;;;;5033738;28;20480;-45
2023/11/22 06:59:17;;;;;;;2.10;1.27;;;14.00;99.90;;;;;;5035002;28;20026;-45
2023/11/22 07:01:43;;;;;;;2.35;1.52;;;14.10;99.90;;;;;;5035291;28;20033;-45
2023/11/22 07:04:08;;;;;;;1.48;1.20;;;14.10;99.90;;;;;;5034333;28;20433;-45
2023/11/22 07:06:36;;;;;;;2.88;1.25;;;14.10;99.90;;;;;;5035898;28;20041;-45
2023/11/22 07:09:01;;;;;;;1.33;1.20;;;14.10;99.90;;;;;;5033906;28;20108;-45
2023/11/22 07:11:30;;;;;;;1.17;0.93;;;14.20;99.90;;;;;;5032525;28;20359;-45
2023/11/22 07:13:57;;;;;;;1.27;1.08;;;14.20;99.90;;;;;;5034019;28;20026;-45
2023/11/22 07:16:24;;;;;;;2.50;1.60;;;14.30;99.90;;;;;;5033037;28;20391;-43
2023/11/22 07:18:50;;;;;;;1.63;1.00;;;14.30;99.90;;;;;;5033939;28;20022;-43
2023/11/22 07:21:20;;;;;;;1.95;1.15;;;14.30;99.90;;;;;;5033342;28;20029;-45
2023/11/22 07:23:46;;;;;;;1.48;1.23;;;14.40;99.90;;;;;;5033349;28;20061;-45
2023/11/22 07:26:14;;;;;;;2.35;0.88;;;14.40;99.90;;;;;;5033759;28;20434;-43
2023/11/22 07:28:40;;;;;;;1.83;1.20;;;14.40;99.90;;;;;;5033302;28;20101;-45
2023/11/22 07:31:09;;;;;;;1.88;1.02;;;14.50;99.90;;;;;;5033642;28;20026;-44
2023/11/22 07:33:35;;;;;;;1.50;1.00;;;14.50;99.90;;;;;;5033727;28;20025;-45
2023/11/22 07:36:02;;;;;;;2.80;1.25;;;14.60;99.90;;;;;;5032926;28;20502;-45
2023/11/22 07:38:31;;;;;;;2.75;1.17;;;14.70;99.90;;;;;;5033193;28;20052;-45
2023/11/22 07:40:56;;;;;;;1.88;1.42;;;14.80;99.90;;;;;;5047576;28;20029;-46
2023/11/22 07:43:22;;;;;;;2.28;1.67;;;14.90;99.90;;;;;;5052460;28;20517;-46
2023/11/22 07:45:48;;;;;;;2.25;1.77;;;14.90;98.90;;;;;;5052441;28;20021;-46
2023/11/22 07:48:14;;;;;;;3.33;1.48;;;14.90;98.60;;;;;;5053035;28;20096;-45
2023/11/22 07:50:43;;;;;;;2.40;1.65;;;14.90;98.50;;;;;;5053201;28;20082;-45
2023/11/22 07:53:11;;;;;;;5.20;1.77;;;15.00;98.60;;;;;;5052939;28;20027;-46
2023/11/22 07:55:41;;;;;;;2.05;1.50;;;15.00;98.60;;;;;;5052506;28;20017;-46
2023/11/22 07:58:07;;;;;;;2.97;1.98;;;15.00;98.70;;;;;;5052929;28;20052;-46
2023/11/22 08:00:33;;;;;;;2.38;1.50;;;15.10;98.70;;;;;;5052504;28;20071;-46
2023/11/22 08:03:02;;;;;;;2.05;1.50;;;15.10;98.80;;;;;;5052154;28;20032;-46
2023/11/22 08:05:29;;;;;;;3.08;1.40;;;15.10;98.80;;;;;;5052599;28;20017;-46
2023/11/22 08:07:54;;;;;;;1.65;1.30;;;15.20;98.90;;;;;;5053270;28;20021;-47
2023/11/22 08:10:20;;;;;;;2.83;1.67;;;15.20;98.90;;;;;;5051490;28;20020;-46
2023/11/22 08:12:47;;;;;;;2.78;1.52;;;15.30;99.00;;;;;;5053410;28;20051;-46
2023/11/22 08:15:14;;;;;;;2.38;1.40;;;15.30;99.00;;;;;;5052072;28;20025;-46
2023/11/22 08:17:41;;;;;;;3.40;1.55;;;15.40;98.50;;;;;;5052908;28;20417;-46
2023/11/22 08:20:11;;;;;;;2.50;1.40;;;15.40;96.60;;;;;;5052997;28;20029;-45
2023/11/22 08:22:38;;;;;;;2.13;1.20;;;15.30;96.10;;;;;;5052397;28;20035;-46
2023/11/22 08:25:05;;;;;;;2.80;1.30;;;15.30;96.20;;;;;;5052668;28;20436;-46
2023/11/22 08:27:31;;;;;;;1.38;1.10;;;15.30;96.40;;;;;;5052938;28;20104;-45
2023/11/22 08:29:57;;;;;;;2.00;1.20;;;15.30;96.70;;;;;;5052283;28;20494;-46
2023/11/22 08:32:27;;;;;;;2.28;1.38;;;15.30;96.90;;;;;;5052544;28;20024;-46
2023/11/22 08:34:53;;;;;;;2.17;1.23;;;15.30;97.00;;;;;;5052812;28;20033;-46
2023/11/22 08:37:18;;;;;;;2.53;1.30;;;15.40;97.20;;;;;;5052789;28;20525;-45
2023/11/22 08:39:44;;;;;;;1.98;1.15;;;15.40;97.30;;;;;;5052295;28;20041;-46
2023/11/22 08:42:10;;;;;;;2.10;1.25;;;15.40;97.40;;;;;;5051756;28;20025;-46
2023/11/22 08:44:36;;;;;;;1.70;1.02;;;15.40;97.40;;;;;;5051414;28;20028;-46
2023/11/22 08:47:03;;;;;;;2.65;1.17;;;15.50;97.50;;;;;;5051449;28;20028;-47
2023/11/22 08:49:29;;;;;;;2.08;1.20;;;15.50;97.60;;;;;;5051407;28;20021;-46
2023/11/22 08:51:55;;;;;;;1.58;0.93;;;15.50;97.60;;;;;;5051711;28;20025;-45
2023/11/22 08:54:21;;;;;;;1.85;1.23;;;15.60;97.60;;;;;;5053108;28;20095;-46
2023/11/22 08:56:47;;;;;;;1.15;0.95;;;15.60;97.60;;;;;;5052158;28;20474;-46
2023/11/22 08:59:13;;;;;;;2.20;1.50;;;15.70;97.70;;;;;;5051921;28;20021;-45
2023/11/22 09:01:40;;;;;;;1.13;0.90;;;15.70;97.70;;;;;;5051878;28;20084;-46
2023/11/22 09:04:08;;;;;;;2.30;1.50;;;15.70;97.70;;;;;;5051696;28;20013;-46
2023/11/22 09:06:34;;;;;;;2.17;1.48;;;15.70;97.70;;;;;;5052089;28;20470;-46
2023/11/22 09:09:00;;;;;;;1.55;1.30;;;15.70;97.70;;;;;;5051544;28;20478;-45
2023/11/22 09:11:26;;;;;;;1.77;1.20;;;15.80;97.70;;;;;;5051962;28;20029;-46
2023/11/22 09:13:56;;;;;;;1.65;1.20;;;15.80;97.70;;;;;;5052641;28;20029;-46
2023/11/22 09:16:24;;;;;;;2.38;1.58;;;15.80;97.70;;;;;;5055460;28;20090;-46
2023/11/22 09:18:50;;;;;;;2.10;1.40;;;15.80;97.70;;;;;;5055326;28;20033;-46
2023/11/22 09:21:16;;;;;;;1.45;1.20;;;15.90;97.70;;;;;;5055192;28;20025;-46
2023/11/22 09:23:43;;;;;;;1.85;1.30;;;15.90;97.70;;;;;;5056401;28;20021;-46
2023/11/22 09:26:08;;;;;;;2.28;1.33;;;15.90;97.60;;;;;;5055829;28;20033;-45
2023/11/22 09:28:34;;;;;;;1.40;1.17;;;16.00;97.70;;;;;;5055204;28;20027;-46
2023/11/22 09:31:05;;;;;;;2.13;1.52;;;16.00;97.70;;;;;;5055807;28;20362;-46
2023/11/22 09:33:32;;;;;;;1.80;1.23;;;16.00;97.70;;;;;;5055391;28;20028;-46
2023/11/22 09:35:58;;;;;;;1.85;1.30;;;16.00;97.60;;;;;;5055443;28;20032;-47
2023/11/22 09:38:24;;;;;;;1.65;1.30;;;16.00;97.60;;;;;;5055114;28;20047;-45
2023/11/22 09:40:51;;;;;;;1.35;1.08;;;16.10;97.60;;;;;;5054969;28;20108;-46
2023/11/22 09:43:18;;;;;;;2.05;1.40;;;16.10;97.60;;;;;;5054662;28;20039;-46
2023/11/22 09:45:44;;;;;;;1.48;1.38;;;16.10;97.60;;;;;;5055213;28;20032;-45
2023/11/22 09:48:15;;;;;;;1.55;1.08;;;16.10;97.50;;;;;;5055123;28;20352;-46
2023/11/22 09:50:48;;;;;;;1.75;1.20;;;16.10;97.50;;;;;;5054794;28;20028;-46
2023/11/22 09:53:42;;;;;;;1.40;1.10;;;16.10;97.50;;;;;;5055427;28;20021;-46
2023/11/22 09:56:14;;;;;;;1.23;0.88;;;16.20;97.50;;;;;;5051122;28;20041;-46
2023/11/22 09:58:44;;;;;;;1.77;1.10;;;16.20;97.50;;;;;;5055368;28;20051;-47
2023/11/22 10:01:13;;;;;;;1.27;0.95;;;16.20;97.50;;;;;;5054610;28;20044;-46
2023/11/22 10:03:39;;;;;;;1.48;1.17;;;16.20;97.50;;;;;;5055224;28;20064;-46
2023/11/22 10:06:06;;;;;;;5.32;2.40;;;16.30;97.50;;;;;;5054636;28;20024;-46
2023/11/22 10:08:33;;;;;;;3.22;2.10;;;16.30;95.90;;;;;;5054551;28;20021;-46
2023/11/22 10:10:59;;;;;;;3.22;2.10;;;16.30;95.30;;;;;;5054474;28;20025;-46
2023/11/22 10:13:26;;;;;;;4.85;2.00;;;16.20;95.20;;;;;;5054211;28;20025;-46
2023/11/22 10:15:53;;;;;;;2.92;2.03;;;16.20;95.40;;;;;;5054031;28;20414;-46
2023/11/22 10:18:19;;;;;;;2.95;2.10;;;16.20;95.60;;;;;;5054717;28;20043;-46
2023/11/22 10:20:47;;;;;;;2.92;2.00;;;16.20;95.80;;;;;;5054536;28;20033;-46
2023/11/22 10:23:14;;;;;;;2.10;1.63;;;16.20;95.90;;;;;;5053994;28;20018;-46
2023/11/22 10:25:44;;;;;;;2.75;1.90;;;16.30;96.00;;;;;;5053888;28;20021;-46
2023/11/22 10:28:11;;;;;;;3.30;2.00;;;16.30;96.00;;;;;;5054392;28;20151;-46
2023/11/22 10:30:37;;;;;;;4.07;1.90;;;16.30;96.10;;;;;;5053536;28;20445;-46
2023/11/22 10:33:03;;;;;;;3.15;1.80;;;16.30;96.10;;;;;;5054340;28;20147;-46
2023/11/22 10:35:29;;;;;;;2.22;1.75;;;16.30;96.20;;;;;;5053873;28;20025;-46
2023/11/22 10:37:55;;;;;;;2.00;1.73;;;16.30;96.20;;;;;;5054558;28;20075;-46
2023/11/22 10:40:21;;;;;;;2.53;1.90;;;16.30;96.20;;;;;;5053643;28;20032;-46
2023/11/22 10:42:52;;;;;;;2.20;1.60;;;16.40;96.20;;;;;;5053678;28;20029;-46
2023/11/22 10:45:18;;;;;;;2.15;1.80;;;16.40;96.30;;;;;;5054715;28;20109;-45
2023/11/22 10:47:45;;;;;;;3.95;1.80;;;16.40;95.10;;;;;;5053538;28;20052;-44
2023/11/22 10:50:12;;;;;;;2.45;1.77;;;16.40;94.30;;;;;;5053547;28;20433;-45
2023/11/22 10:52:40;;;;;;;3.03;1.80;;;16.30;94.00;;;;;;5054236;28;20051;-45
2023/11/22 10:55:07;;;;;;;2.67;1.80;;;16.30;94.10;;;;;;5054113;28;20025;-45
2023/11/22 10:57:45;;;;;;;2.40;1.77;;;16.30;94.20;;;;;;5053632;28;20367;-45
2023/11/22 11:00:13;;;;;;;1.70;1.35;;;16.30;94.30;;;;;;5053972;28;20128;-44
2023/11/22 11:02:49;;;;;;;1.95;1.67;;;16.30;94.40;;;;;;5053598;28;20383;-45
2023/11/22 11:05:23;;;;;;;2.05;1.48;;;16.40;94.50;;;;;;5053120;28;20040;-45
2023/11/22 11:07:59;;;;;;;3.42;1.58;;;16.40;94.70;;;;;;5053068;28;20049;-45
2023/11/22 11:10:25;;;;;;;2.53;1.80;;;16.40;94.70;;;;;;5054621;28;20025;-45
2023/11/22 11:12:53;;;;;;;2.28;1.70;;;16.40;94.80;;;;;;5055550;28;20083;-44
2023/11/22 11:15:21;;;;;;;2.55;1.88;;;16.40;94.90;;;;;;5053987;28;20021;-45
2023/11/22 11:17:47;;;;;;;2.63;1.40;;;16.40;94.90;;;;;;5053643;28;20033;-45
2023/11/22 11:20:17;;;;;;;2.00;1.40;;;16.50;95.00;;;;;;5053727;28;20052;-45
2023/11/22 11:22:45;;;;;;;2.55;1.80;;;16.40;95.00;;;;;;5054125;28;20021;-43
2023/11/22 11:25:20;;;;;;;3.10;1.50;;;16.40;95.00;;;;;;5053999;28;20025;-44
2023/11/22 11:27:57;;;;;;;2.45;1.52;;;16.40;95.00;;;;;;5053280;28;20029;-45
2023/11/22 11:30:32;;;;;;;3.03;1.40;;;16.40;95.00;;;;;;5053547;28;20017;-43
2023/11/22 11:32:58;;;;;;;1.67;1.30;;;16.50;95.10;;;;;;5053652;28;20043;-45
2023/11/22 11:35:41;;;;;;;2.03;1.50;;;16.50;95.10;;;;;;5053653;28;20025;-45
2023/11/22 11:38:09;;;;;;;1.90;1.52;;;16.50;95.10;;;;;;5053037;28;20033;-45
2023/11/22 11:40:35;;;;;;;2.60;1.63;;;16.50;95.20;;;;;;5053106;28;20021;-45
2023/11/22 11:43:01;;;;;;;2.13;1.40;;;16.50;95.10;;;;;;5053210;28;20021;-44
2023/11/22 11:45:27;;;;;;;1.40;1.20;;;16.50;95.10;;;;;;5053262;28;20428;-45
2023/11/22 11:47:53;;;;;;;4.15;1.23;;;16.50;95.10;;;;;;5043560;28;20029;-44
2023/11/22 11:50:21;;;;;;;1.80;1.27;;;16.50;95.20;;;;;;5053280;28;20486;-45
2023/11/22 11:52:47;;;;;;;2.13;1.35;;;16.50;95.10;;;;;;5052350;28;20032;-45
2023/11/22 11:55:13;;;;;;;2.53;1.30;;;16.50;95.20;;;;;;5052208;28;20052;-45
2023/11/22 11:57:41;;;;;;;1.90;1.40;;;16.50;95.20;;;;;;5053149;28;20044;-45
2023/11/22 12:00:09;;;;;;;1.80;1.27;;;16.60;95.50;;;;;;5053280;28;20021;-45
2023/11/22 12:02:35;;;;;;;2.42;1.60;;;16.50;95.20;;;;;;5053264;28;20553;-45
2023/11/22 12:05:06;;;;;;;1.75;1.25;;;16.60;95.20;;;;;;5052255;28;20029;-45
2023/11/22 12:07:31;;;;;;;2.53;1.27;;;16.60;95.20;;;;;;5052962;28;20032;-45
2023/11/22 12:09:57;;;;;;;2.25;1.40;;;16.60;95.20;;;;;;5052360;28;20471;-44
2023/11/22 12:12:23;;;;;;;2.05;1.25;;;16.60;95.20;;;;;;5053531;28;20075;-45
2023/11/22 12:14:49;;;;;;;3.42;1.40;;;16.60;95.20;;;;;;5051269;28;20029;-45
2023/11/22 12:17:16;;;;;;;1.90;1.27;;;16.60;95.20;;;;;;5051902;28;20123;-45
2023/11/22 12:19:41;;;;;;;1.80;1.33;;;16.60;95.20;;;;;;5051807;28;20100;-45
2023/11/22 12:22:07;;;;;;;1.92;1.25;;;16.60;95.20;;;;;;5052792;28;20105;-45
2023/11/22 12:24:34;;;;;;;1.40;1.20;;;16.60;95.20;;;;;;5052109;28;20021;-45
2023/11/22 12:27:00;;;;;;;2.05;1.40;;;16.60;95.20;;;;;;5053547;28;20029;-45
2023/11/22 12:29:26;;;;;;;1.85;1.17;;;16.60;95.20;;;;;;5051271;28;20475;-43
2023/11/22 12:31:56;;;;;;;2.38;1.30;;;16.60;95.20;;;;;;5052544;28;20025;-44
2023/11/22 12:34:22;;;;;;;2.97;1.48;;;16.60;95.20;;;;;;5052553;28;20025;-45
2023/11/22 12:36:48;;;;;;;2.33;1.40;;;16.70;95.20;;;;;;5027617;28;20068;-45
2023/11/22 12:39:16;;;;;;;1.80;1.10;;;16.60;95.10;;;;;;5051967;28;20079;-45
2023/11/22 12:41:47;;;;;;;1.85;1.30;;;16.60;95.20;;;;;;5052646;28;20029;-45
2023/11/22 12:44:13;;;;;;;2.45;1.45;;;16.60;95.10;;;;;;5052077;28;20024;-45
2023/11/22 12:46:49;;;;;;;1.73;1.25;;;16.60;95.10;;;;;;5052273;28;20029;-45